Time;durP1;ratioP1;P1;durP2;ratioP2;P2;SDS_P1;SDS_P2;PMS_P1;PMS_P2;Temp;Humidity;BMP_temperature;BMP_pressure;BME280_temperature;BME280_humidity;BME280_pressure;Samples;Min_cycle;Max_cycle;Signal;HPM_P1;HPM_P2
2022/06/04 00:00:46;;;;;;;13.37;12.67;;;18.60;92.40;;;;;;5074149;28;20470;-67
2022/06/04 00:03:13;;;;;;;13.90;12.90;;;18.60;92.60;;;;;;5067678;28;20467;-67
2022/06/04 00:05:43;;;;;;;14.57;13.57;;;18.60;92.80;;;;;;5079073;28;21124;-67
2022/06/04 00:08:12;;;;;;;15.33;14.00;;;18.50;92.60;;;;;;5081661;28;20451;-67
2022/06/04 00:16:14;;;;;;;15.17;14.07;;;18.30;93.60;;;;;;5046402;28;20481;-68
2022/06/04 00:18:42;;;;;;;13.53;12.73;;;18.30;93.90;;;;;;5062238;28;20460;-68
2022/06/04 00:21:09;;;;;;;14.30;13.37;;;18.10;94.30;;;;;;5076609;28;20470;-68
2022/06/04 00:23:40;;;;;;;13.93;12.40;;;18.20;94.50;;;;;;5078535;28;20470;-68
2022/06/04 00:26:09;;;;;;;13.63;12.80;;;18.20;94.70;;;;;;5066073;28;20459;-67
2022/06/04 00:28:37;;;;;;;14.37;13.10;;;18.20;94.80;;;;;;5064250;28;20459;-67
2022/06/04 00:31:05;;;;;;;14.10;13.13;;;18.10;95.00;;;;;;5077343;28;20573;-67
2022/06/04 00:33:33;;;;;;;14.53;13.43;;;18.10;95.10;;;;;;5064853;28;20679;-67
2022/06/04 00:36:01;;;;;;;13.27;12.57;;;18.00;95.60;;;;;;5077175;28;20826;-68
2022/06/04 00:38:30;;;;;;;14.53;13.20;;;17.90;95.90;;;;;;5074645;28;20485;-67
2022/06/04 00:41:07;;;;;;;20.60;13.93;;;17.90;96.50;;;;;;5078001;28;20465;-68
2022/06/04 00:43:58;;;;;;;14.37;13.27;;;18.00;96.60;;;;;;5076676;28;20457;-67
2022/06/04 00:47:07;;;;;;;13.83;12.77;;;18.00;96.70;;;;;;5072354;28;20458;-67
2022/06/04 00:49:34;;;;;;;14.83;13.47;;;17.90;97.00;;;;;;5045816;28;20529;-67
2022/06/04 00:52:02;;;;;;;13.63;12.80;;;17.90;97.00;;;;;;5068674;28;20854;-67
2022/06/04 00:54:29;;;;;;;14.03;13.07;;;18.00;97.30;;;;;;5071553;28;20470;-67
2022/06/04 00:57:09;;;;;;;13.93;13.10;;;17.90;97.30;;;;;;5077232;28;20460;-67
2022/06/04 00:59:44;;;;;;;14.73;13.73;;;17.80;97.60;;;;;;5069660;28;20472;-67
2022/06/04 01:02:21;;;;;;;14.37;13.17;;;17.80;97.90;;;;;;5079337;28;20469;-67
2022/06/04 01:04:59;;;;;;;13.10;12.27;;;17.80;98.20;;;;;;5074376;28;21012;-67
2022/06/04 01:07:43;;;;;;;13.00;12.30;;;17.80;98.40;;;;;;5080866;28;20837;-68
2022/06/04 01:10:27;;;;;;;14.53;13.67;;;17.90;98.30;;;;;;5068980;28;20985;-67
2022/06/04 01:13:11;;;;;;;13.90;12.87;;;17.90;98.60;;;;;;5074815;28;20478;-67
2022/06/04 01:15:51;;;;;;;14.37;13.20;;;17.90;98.50;;;;;;5065859;28;20469;-67
2022/06/04 01:18:30;;;;;;;14.47;13.27;;;17.90;98.70;;;;;;5069142;28;20463;-67
2022/06/04 01:21:02;;;;;;;14.20;13.10;;;17.70;99.20;;;;;;5079268;28;20830;-68
2022/06/04 01:24:21;;;;;;;13.83;12.83;;;17.70;99.20;;;;;;5073487;28;20455;-68
2022/06/04 01:27:04;;;;;;;13.90;12.90;;;17.60;99.60;;;;;;5036497;28;20513;-68
2022/06/04 01:29:35;;;;;;;13.30;12.27;;;17.60;99.70;;;;;;5075137;28;20961;-68
2022/06/04 01:32:08;;;;;;;13.70;12.63;;;17.60;99.90;;;;;;5075317;28;20465;-67
2022/06/04 01:34:43;;;;;;;13.70;12.77;;;17.60;99.90;;;;;;5070255;28;20458;-68
2022/06/04 01:37:16;;;;;;;13.27;12.47;;;17.60;99.90;;;;;;5075085;28;20466;-67
2022/06/04 01:42:34;;;;;;;14.70;13.50;;;17.50;99.90;;;;;;5041640;28;20468;-68
2022/06/04 01:45:04;;;;;;;13.47;12.67;;;17.60;99.90;;;;;;5076243;28;20465;-67
2022/06/04 01:47:33;;;;;;;14.63;13.13;;;17.40;99.90;;;;;;5075206;28;20470;-67
2022/06/04 01:50:03;;;;;;;14.27;13.43;;;17.40;99.90;;;;;;5068484;28;20482;-67
2022/06/04 01:52:33;;;;;;;13.00;12.30;;;17.40;99.90;;;;;;5077198;28;20976;-68
2022/06/04 01:55:05;;;;;;;13.23;12.37;;;17.30;99.90;;;;;;5069335;28;20819;-68
2022/06/04 01:57:37;;;;;;;13.43;12.50;;;17.10;99.90;;;;;;5071787;28;20462;-67
2022/06/04 02:00:09;;;;;;;13.77;12.70;;;17.20;99.90;;;;;;5070343;28;20482;-67
2022/06/04 02:02:41;;;;;;;13.60;12.33;;;17.30;99.90;;;;;;5078474;28;20455;-68
2022/06/04 02:05:13;;;;;;;13.20;12.40;;;17.20;99.90;;;;;;5064617;28;20486;-68
2022/06/04 02:07:46;;;;;;;13.80;12.83;;;17.30;99.90;;;;;;5047349;28;20462;-68
2022/06/04 02:10:19;;;;;;;14.10;13.10;;;17.30;99.90;;;;;;5055052;28;20838;-67
2022/06/04 02:12:51;;;;;;;14.13;13.03;;;17.20;99.90;;;;;;5045277;28;20537;-68
2022/06/04 02:15:21;;;;;;;13.27;12.57;;;17.10;99.90;;;;;;5048971;28;20527;-68
2022/06/04 02:17:54;;;;;;;13.10;12.30;;;17.10;99.90;;;;;;5055583;28;20467;-67
2022/06/04 02:20:21;;;;;;;14.40;13.03;;;17.00;99.90;;;;;;5054084;28;20463;-67
2022/06/04 02:22:49;;;;;;;14.17;12.97;;;16.90;99.90;;;;;;5052255;28;20455;-67
2022/06/04 02:25:17;;;;;;;13.97;12.90;;;16.90;99.90;;;;;;5046964;28;20467;-68
2022/06/04 02:27:47;;;;;;;13.60;12.70;;;16.90;99.90;;;;;;5056617;28;20895;-68
2022/06/04 02:30:15;;;;;;;13.90;12.90;;;16.80;99.90;;;;;;5057880;28;20921;-67
2022/06/04 02:32:53;;;;;;;13.20;12.40;;;16.70;99.90;;;;;;5042683;28;20479;-67
2022/06/04 02:35:26;;;;;;;13.10;12.30;;;16.60;99.90;;;;;;5045826;28;20478;-68
2022/06/04 02:37:59;;;;;;;14.03;13.00;;;16.60;99.90;;;;;;5054792;28;20980;-68
2022/06/04 02:40:29;;;;;;;14.13;12.87;;;16.50;99.90;;;;;;5045609;28;20820;-67
2022/06/04 02:43:06;;;;;;;14.93;13.73;;;16.40;99.90;;;;;;5049642;28;20869;-68
2022/06/04 02:45:36;;;;;;;14.63;12.90;;;16.40;99.90;;;;;;5048587;28;20467;-68
2022/06/04 02:48:10;;;;;;;13.23;12.43;;;16.30;99.90;;;;;;5055245;28;22949;-67
2022/06/04 02:50:41;;;;;;;15.20;13.93;;;16.20;99.90;;;;;;5044986;28;20513;-68
2022/06/04 02:53:09;;;;;;;14.10;13.20;;;16.10;99.90;;;;;;5052902;28;20470;-67
2022/06/04 02:55:41;;;;;;;14.30;13.30;;;16.10;99.90;;;;;;5052305;28;20463;-67
2022/06/04 02:58:13;;;;;;;16.57;13.40;;;16.10;99.90;;;;;;5046517;28;20465;-67
2022/06/04 03:00:41;;;;;;;15.40;14.20;;;16.00;99.90;;;;;;5042053;28;20463;-67
2022/06/04 03:03:12;;;;;;;14.87;13.60;;;15.80;99.90;;;;;;5054688;28;20758;-67
2022/06/04 03:05:53;;;;;;;15.30;13.90;;;15.80;99.90;;;;;;5047279;28;20519;-67
2022/06/04 03:08:20;;;;;;;13.87;12.70;;;15.70;99.90;;;;;;5051586;28;20493;-68
2022/06/04 03:10:47;;;;;;;13.53;12.63;;;15.60;99.90;;;;;;5051264;28;20518;-67
2022/06/04 03:13:17;;;;;;;13.70;12.67;;;15.60;99.90;;;;;;5055100;28;20484;-67
2022/06/04 03:15:46;;;;;;;14.83;13.60;;;15.60;99.90;;;;;;5056343;28;20962;-67
2022/06/04 03:18:13;;;;;;;14.17;12.83;;;15.50;99.90;;;;;;5047197;28;20546;-67
2022/06/04 03:20:40;;;;;;;14.27;12.97;;;15.50;99.90;;;;;;5055190;28;20497;-67
2022/06/04 03:23:08;;;;;;;13.30;12.40;;;15.40;99.90;;;;;;5037023;28;20552;-67
2022/06/04 03:25:50;;;;;;;13.53;12.60;;;15.40;99.90;;;;;;5045855;28;20840;-67
2022/06/04 03:28:18;;;;;;;13.03;12.13;;;15.50;99.90;;;;;;5050230;28;20469;-67
2022/06/04 03:30:46;;;;;;;20.10;12.70;;;15.40;99.90;;;;;;5047696;28;21016;-67
2022/06/04 03:33:13;;;;;;;13.70;12.80;;;15.40;99.90;;;;;;5045556;28;20464;-68
2022/06/04 03:35:40;;;;;;;14.50;13.30;;;15.50;99.90;;;;;;5044141;28;20969;-68
2022/06/04 03:38:08;;;;;;;18.80;13.80;;;15.50;99.90;;;;;;5054097;28;20581;-68
2022/06/04 03:40:36;;;;;;;13.80;12.90;;;15.40;99.90;;;;;;5054452;28;20551;-67
2022/06/04 03:43:03;;;;;;;14.80;13.50;;;15.40;99.90;;;;;;5051559;28;20462;-67
2022/06/04 03:45:31;;;;;;;17.23;13.33;;;15.40;99.90;;;;;;5052360;28;20491;-68
2022/06/04 03:47:58;;;;;;;14.77;13.63;;;15.40;99.90;;;;;;5040554;28;20469;-67
2022/06/04 03:50:26;;;;;;;14.50;13.00;;;15.50;99.90;;;;;;5052360;28;20458;-68
2022/06/04 03:52:54;;;;;;;14.33;13.10;;;15.50;99.90;;;;;;5055604;28;20459;-67
2022/06/04 03:55:21;;;;;;;15.13;13.90;;;15.50;99.90;;;;;;5046586;28;20460;-68
2022/06/04 03:57:49;;;;;;;14.60;13.40;;;15.50;99.90;;;;;;5054791;28;20461;-67
2022/06/04 04:00:20;;;;;;;14.30;13.30;;;15.60;99.90;;;;;;5045678;28;20463;-68
2022/06/04 04:02:51;;;;;;;13.77;12.97;;;15.60;99.90;;;;;;5029748;28;20460;-67
2022/06/04 04:05:21;;;;;;;13.97;13.07;;;15.60;99.90;;;;;;5021699;28;20499;-68
2022/06/04 04:07:48;;;;;;;16.63;15.33;;;15.60;99.90;;;;;;5018807;28;20964;-68
2022/06/04 04:10:17;;;;;;;14.27;13.23;;;15.60;99.90;;;;;;5020583;28;20468;-68
2022/06/04 04:12:44;;;;;;;15.13;13.33;;;15.70;99.90;;;;;;5020249;28;20517;-68
2022/06/04 04:15:12;;;;;;;13.70;12.80;;;15.60;99.90;;;;;;5022710;28;20471;-68
2022/06/04 04:17:40;;;;;;;13.70;12.80;;;15.70;99.90;;;;;;5020026;28;20666;-67
2022/06/04 04:20:11;;;;;;;13.40;12.60;;;15.60;99.90;;;;;;5021320;28;20454;-68
2022/06/04 04:22:38;;;;;;;14.90;13.50;;;15.70;99.90;;;;;;5020804;28;21004;-68
2022/06/04 04:25:07;;;;;;;15.47;14.37;;;15.70;99.90;;;;;;5021128;28;21021;-68
2022/06/04 04:27:33;;;;;;;15.37;13.97;;;15.70;99.90;;;;;;5019346;28;20467;-67
2022/06/04 04:30:00;;;;;;;13.87;13.07;;;15.70;99.90;;;;;;5021217;28;20478;-68
2022/06/04 04:32:28;;;;;;;14.07;13.27;;;15.60;99.90;;;;;;5021314;28;20503;-68
2022/06/04 04:34:54;;;;;;;15.30;14.10;;;15.80;99.90;;;;;;5023563;28;20459;-67
2022/06/04 04:37:23;;;;;;;13.87;12.97;;;15.90;99.90;;;;;;5026269;28;20486;-67
2022/06/04 04:39:50;;;;;;;13.53;12.63;;;15.80;99.90;;;;;;5025874;28;20494;-68
2022/06/04 04:42:17;;;;;;;13.47;12.67;;;15.80;99.90;;;;;;5024503;28;20974;-67
2022/06/04 04:44:44;;;;;;;14.17;13.17;;;15.90;99.90;;;;;;5024888;28;20477;-67
2022/06/04 04:47:11;;;;;;;14.90;13.47;;;15.90;99.90;;;;;;5025138;28;20550;-67
2022/06/04 04:49:38;;;;;;;14.10;13.10;;;15.80;99.90;;;;;;5024820;28;20468;-67
2022/06/04 04:52:05;;;;;;;13.70;12.80;;;15.80;99.90;;;;;;5025395;28;20498;-67
2022/06/04 04:54:34;;;;;;;14.00;13.10;;;16.00;99.90;;;;;;5022856;28;20479;-67
2022/06/04 04:57:01;;;;;;;15.23;14.13;;;16.00;99.90;;;;;;5023550;28;20467;-68
2022/06/04 04:59:29;;;;;;;13.50;12.70;;;16.00;99.90;;;;;;5023730;28;20472;-67
2022/06/04 05:01:55;;;;;;;14.20;13.30;;;16.10;99.90;;;;;;5024063;28;21211;-68
2022/06/04 05:04:22;;;;;;;14.77;13.73;;;16.30;99.90;;;;;;5022756;28;20499;-67
2022/06/04 05:06:50;;;;;;;15.00;14.10;;;16.20;99.90;;;;;;5024370;28;21140;-67
2022/06/04 05:09:17;;;;;;;15.00;13.80;;;16.20;99.90;;;;;;5025522;28;21247;-67
2022/06/04 05:11:45;;;;;;;15.87;14.60;;;16.30;99.90;;;;;;5022066;28;20503;-67
2022/06/04 05:14:12;;;;;;;15.27;13.63;;;16.40;99.90;;;;;;5024234;28;20456;-67
2022/06/04 05:16:40;;;;;;;15.70;14.60;;;16.50;99.90;;;;;;5024535;28;20478;-67
2022/06/04 05:19:08;;;;;;;14.33;13.43;;;16.70;99.90;;;;;;5023685;28;20467;-67
2022/06/04 05:21:42;;;;;;;14.30;13.30;;;16.60;99.90;;;;;;5024790;28;20473;-67
2022/06/04 05:24:25;;;;;;;14.10;13.10;;;16.80;99.90;;;;;;5023510;28;20462;-66
2022/06/04 05:26:55;;;;;;;16.20;14.87;;;16.80;99.90;;;;;;5022866;28;20467;-67
2022/06/04 05:29:22;;;;;;;15.50;14.30;;;16.90;99.90;;;;;;5024895;28;20459;-67
2022/06/04 05:31:49;;;;;;;14.50;13.60;;;17.00;99.90;;;;;;5022166;28;20827;-67
2022/06/04 05:34:18;;;;;;;14.93;13.93;;;17.10;99.90;;;;;;5024376;28;22891;-68
2022/06/04 05:36:46;;;;;;;14.33;13.30;;;17.30;99.90;;;;;;5025082;28;20463;-66
2022/06/04 05:39:15;;;;;;;15.27;14.07;;;17.30;99.90;;;;;;5022337;28;20920;-67
2022/06/04 05:41:42;;;;;;;16.60;15.03;;;17.20;99.90;;;;;;5024502;28;20467;-68
2022/06/04 05:44:11;;;;;;;14.77;13.83;;;17.20;99.90;;;;;;5032968;28;20459;-67
2022/06/04 05:46:41;;;;;;;14.73;13.60;;;17.20;99.90;;;;;;5046160;28;20490;-67
2022/06/04 05:49:08;;;;;;;14.23;13.33;;;17.40;99.90;;;;;;5057147;28;20459;-67
2022/06/04 05:51:36;;;;;;;14.57;13.77;;;17.50;99.90;;;;;;5029594;28;20495;-68
2022/06/04 05:54:03;;;;;;;14.93;13.93;;;17.40;99.90;;;;;;5023914;28;21524;-69
2022/06/04 05:56:33;;;;;;;16.03;14.40;;;17.60;99.90;;;;;;5024673;28;21013;-68
2022/06/04 05:59:01;;;;;;;15.97;14.70;;;17.90;99.90;;;;;;5023852;28;20497;-68
2022/06/04 06:01:32;;;;;;;17.40;15.50;;;17.90;99.90;;;;;;5019891;28;20475;-68
2022/06/04 06:03:59;;;;;;;15.00;13.83;;;17.80;99.90;;;;;;5026274;28;20627;-67
2022/06/04 06:06:29;;;;;;;15.13;14.13;;;17.90;99.90;;;;;;5041188;28;20470;-67
2022/06/04 06:08:57;;;;;;;15.63;14.53;;;17.50;99.90;;;;;;5041924;28;20897;-68
2022/06/04 06:11:24;;;;;;;15.13;14.23;;;17.50;99.90;;;;;;5042440;28;20502;-68
2022/06/04 06:13:52;;;;;;;16.03;14.87;;;17.60;99.90;;;;;;5039845;28;20450;-67
2022/06/04 06:16:23;;;;;;;15.77;14.73;;;18.00;99.90;;;;;;5040600;28;20796;-68
2022/06/04 06:18:51;;;;;;;15.43;14.30;;;18.20;99.90;;;;;;5042402;28;20466;-67
2022/06/04 06:21:21;;;;;;;15.67;14.57;;;18.30;99.90;;;;;;5041920;28;20470;-67
2022/06/04 06:23:49;;;;;;;17.63;16.20;;;18.30;99.90;;;;;;5041532;28;20841;-67
2022/06/04 06:26:18;;;;;;;15.83;14.77;;;18.60;99.90;;;;;;5042740;28;20985;-68
2022/06/04 06:28:45;;;;;;;15.80;14.70;;;18.70;99.90;;;;;;5040494;28;20854;-67
2022/06/04 06:31:19;;;;;;;15.97;15.07;;;18.20;99.90;;;;;;5042478;28;20478;-67
2022/06/04 06:33:47;;;;;;;15.53;14.63;;;18.10;99.90;;;;;;5041728;28;20459;-68
2022/06/04 06:36:17;;;;;;;15.70;14.70;;;18.70;99.90;;;;;;5041352;28;20548;-67
2022/06/04 06:38:46;;;;;;;15.40;14.50;;;18.80;99.90;;;;;;5041747;28;20463;-67
2022/06/04 06:41:14;;;;;;;15.90;15.00;;;18.90;99.90;;;;;;5040731;28;20479;-67
2022/06/04 06:43:46;;;;;;;15.17;14.20;;;18.70;99.90;;;;;;5041973;28;20716;-67
2022/06/04 06:46:17;;;;;;;16.17;15.20;;;18.60;99.90;;;;;;5065391;28;20470;-67
2022/06/04 06:48:45;;;;;;;15.73;14.83;;;18.50;99.90;;;;;;5072392;28;20458;-68
2022/06/04 06:51:17;;;;;;;15.70;14.80;;;18.80;99.90;;;;;;5070860;28;20458;-68
2022/06/04 06:53:44;;;;;;;15.60;14.27;;;19.10;99.90;;;;;;5069100;28;20471;-67
2022/06/04 06:56:12;;;;;;;14.40;13.60;;;19.20;99.90;;;;;;5041629;28;20463;-67
2022/06/04 06:58:39;;;;;;;15.63;14.53;;;19.40;99.90;;;;;;5040969;28;20944;-67
2022/06/04 07:01:06;;;;;;;15.60;14.70;;;19.70;99.90;;;;;;5041369;28;20461;-68
2022/06/04 07:03:34;;;;;;;15.80;14.80;;;20.00;99.90;;;;;;5039844;28;20467;-67
2022/06/04 07:06:01;;;;;;;15.27;14.37;;;20.00;99.90;;;;;;5039729;28;20454;-66
2022/06/04 07:08:30;;;;;;;15.20;14.27;;;20.10;99.90;;;;;;5040983;28;20513;-67
2022/06/04 07:10:57;;;;;;;16.83;15.67;;;20.00;99.90;;;;;;5040504;28;22579;-67
2022/06/04 07:13:24;;;;;;;15.37;14.57;;;20.20;99.90;;;;;;5040231;28;20600;-67
2022/06/04 07:15:52;;;;;;;18.97;14.53;;;20.50;99.90;;;;;;5040137;28;20524;-67
2022/06/04 07:18:19;;;;;;;15.60;14.70;;;20.70;99.90;;;;;;5041284;28;20463;-67
2022/06/04 07:20:46;;;;;;;16.60;15.70;;;20.70;99.90;;;;;;5041856;28;20470;-67
2022/06/04 07:23:13;;;;;;;15.67;14.50;;;20.30;99.90;;;;;;5041547;28;20466;-67
2022/06/04 07:25:44;;;;;;;16.87;15.30;;;20.20;99.90;;;;;;5041218;28;20467;-67
2022/06/04 07:28:12;;;;;;;16.63;15.73;;;20.00;99.90;;;;;;5041701;28;21124;-67
2022/06/04 07:30:39;;;;;;;17.27;16.23;;;20.00;99.90;;;;;;5040783;28;20583;-67
2022/06/04 07:33:06;;;;;;;16.67;15.67;;;20.20;99.90;;;;;;5040424;28;20506;-68
2022/06/04 07:35:34;;;;;;;16.10;15.10;;;20.70;99.90;;;;;;5041323;28;21526;-69
2022/06/04 07:38:00;;;;;;;16.97;15.73;;;20.90;99.90;;;;;;5040223;28;20476;-67
2022/06/04 07:40:27;;;;;;;15.57;14.77;;;20.60;99.90;;;;;;5041431;28;20508;-67
2022/06/04 07:42:56;;;;;;;16.30;15.20;;;20.70;99.90;;;;;;5054737;28;20545;-67
2022/06/04 07:45:23;;;;;;;16.50;15.40;;;20.60;99.90;;;;;;5045616;28;21172;-68
2022/06/04 07:47:50;;;;;;;16.80;15.60;;;20.50;99.90;;;;;;5040221;28;21017;-68
2022/06/04 07:50:17;;;;;;;16.27;15.20;;;20.50;99.90;;;;;;5039640;28;20494;-68
2022/06/04 07:52:44;;;;;;;16.80;15.40;;;20.60;99.90;;;;;;5040867;28;21489;-68
2022/06/04 07:55:11;;;;;;;16.10;15.20;;;20.50;99.90;;;;;;5040433;28;20527;-67
2022/06/04 07:57:40;;;;;;;18.90;17.20;;;20.50;99.90;;;;;;5039260;28;20834;-68
2022/06/04 08:00:10;;;;;;;16.77;15.57;;;20.10;99.90;;;;;;5040860;28;20467;-69
2022/06/04 08:02:37;;;;;;;16.00;15.10;;;20.30;99.90;;;;;;5038773;28;20459;-69
2022/06/04 08:05:05;;;;;;;16.90;15.33;;;20.70;99.90;;;;;;5041439;28;20999;-68
2022/06/04 08:07:32;;;;;;;16.93;15.70;;;21.10;99.90;;;;;;5041375;28;20485;-68
2022/06/04 08:09:59;;;;;;;16.63;15.33;;;21.20;99.90;;;;;;5044247;28;20450;-68
2022/06/04 08:12:30;;;;;;;16.03;15.13;;;21.40;99.90;;;;;;5043952;28;20509;-68
2022/06/04 08:14:57;;;;;;;16.43;15.43;;;21.60;99.90;;;;;;5043368;28;20496;-69
2022/06/04 08:17:26;;;;;;;16.87;15.73;;;21.50;99.90;;;;;;5044710;28;20475;-68
2022/06/04 08:19:54;;;;;;;16.60;15.50;;;21.80;99.90;;;;;;5058921;28;20459;-68
2022/06/04 08:22:21;;;;;;;16.40;15.47;;;21.70;99.90;;;;;;5068721;28;20541;-68
2022/06/04 08:24:48;;;;;;;17.33;16.03;;;21.20;99.90;;;;;;5047425;28;20953;-68
2022/06/04 08:27:16;;;;;;;16.70;15.70;;;20.90;99.90;;;;;;5042250;28;21295;-68
2022/06/04 08:29:44;;;;;;;17.00;16.00;;;20.70;99.90;;;;;;5045030;28;20952;-68
2022/06/04 08:32:12;;;;;;;20.87;16.30;;;20.50;99.90;;;;;;5064701;28;20503;-67
2022/06/04 08:34:41;;;;;;;16.80;15.70;;;20.40;99.90;;;;;;5067597;28;20462;-68
2022/06/04 08:37:08;;;;;;;16.53;15.53;;;20.60;99.90;;;;;;5052952;28;20459;-68
2022/06/04 08:39:36;;;;;;;17.60;16.00;;;20.30;99.90;;;;;;5044421;28;20901;-68
2022/06/04 08:42:17;;;;;;;17.33;16.23;;;20.60;99.90;;;;;;5044115;28;21015;-68
2022/06/04 08:44:47;;;;;;;17.30;16.10;;;20.70;99.90;;;;;;5059306;28;20838;-68
2022/06/04 08:47:17;;;;;;;16.67;15.20;;;20.80;99.90;;;;;;5072281;28;21019;-68
2022/06/04 08:49:49;;;;;;;17.37;16.00;;;21.40;99.90;;;;;;5069779;28;20459;-68
2022/06/04 08:52:19;;;;;;;16.17;15.17;;;21.50;99.90;;;;;;5047867;28;20568;-68
2022/06/04 08:57:38;;;;;;;17.20;16.10;;;21.90;99.90;;;;;;5040886;28;20465;-68
2022/06/04 09:00:15;;;;;;;17.43;16.23;;;21.90;99.90;;;;;;5043168;28;20577;-68
2022/06/04 09:02:59;;;;;;;15.23;14.43;;;22.10;99.90;;;;;;5071257;28;20539;-68
2022/06/04 09:05:36;;;;;;;16.43;15.40;;;21.90;99.90;;;;;;5054678;28;20591;-68
2022/06/04 09:08:11;;;;;;;16.77;15.87;;;21.90;99.90;;;;;;5036005;28;21018;-68
2022/06/04 09:10:43;;;;;;;16.63;15.63;;;22.00;99.90;;;;;;5031663;28;20544;-68
2022/06/04 09:13:17;;;;;;;16.97;15.50;;;22.20;99.90;;;;;;5030929;28;20499;-68
2022/06/04 09:15:49;;;;;;;17.27;15.97;;;22.30;99.90;;;;;;5042572;28;20841;-69
2022/06/04 09:18:20;;;;;;;17.40;15.93;;;22.40;99.90;;;;;;5042529;28;20481;-68
2022/06/04 09:20:49;;;;;;;16.53;15.43;;;22.40;99.90;;;;;;5041012;28;20458;-68
2022/06/04 09:23:22;;;;;;;17.07;16.07;;;22.70;99.90;;;;;;5042501;28;20545;-68
2022/06/04 09:25:55;;;;;;;17.20;15.80;;;22.90;99.90;;;;;;5042670;28;20471;-69
2022/06/04 09:28:33;;;;;;;17.80;16.50;;;23.30;99.90;;;;;;5042197;28;20448;-67
2022/06/04 09:31:16;;;;;;;16.70;15.70;;;23.20;99.90;;;;;;5041945;28;20458;-67
2022/06/04 09:33:53;;;;;;;17.30;16.30;;;23.20;99.90;;;;;;5041924;28;20991;-68
2022/06/04 09:36:26;;;;;;;17.67;16.50;;;23.60;99.90;;;;;;5042671;28;20552;-68
2022/06/04 09:38:56;;;;;;;17.77;16.50;;;24.10;99.90;;;;;;5048849;28;20772;-68
2022/06/04 09:41:25;;;;;;;18.97;16.10;;;24.20;99.90;;;;;;5066921;28;20469;-68
2022/06/04 09:44:07;;;;;;;17.17;15.97;;;24.50;99.90;;;;;;5049676;28;21157;-67
2022/06/04 09:46:35;;;;;;;18.60;17.20;;;24.50;99.90;;;;;;5042680;28;20461;-68
2022/06/04 09:49:13;;;;;;;17.67;16.67;;;24.50;99.40;;;;;;5041736;28;20447;-68
2022/06/04 09:51:44;;;;;;;18.33;16.37;;;24.60;99.00;;;;;;5043291;28;20456;-68
2022/06/04 09:54:25;;;;;;;17.03;15.13;;;24.80;98.50;;;;;;5042397;28;20514;-68
2022/06/04 09:56:55;;;;;;;18.97;17.10;;;25.10;97.50;;;;;;5042759;28;20513;-69
2022/06/04 09:59:25;;;;;;;17.40;15.90;;;25.40;96.60;;;;;;5040850;28;20536;-69
2022/06/04 10:01:54;;;;;;;18.00;16.80;;;25.50;96.10;;;;;;5041937;28;22831;-69
2022/06/04 10:04:21;;;;;;;18.57;17.47;;;25.50;96.20;;;;;;5042107;28;20905;-68
2022/06/04 10:06:50;;;;;;;17.20;16.10;;;25.80;95.30;;;;;;5043490;28;20463;-68
2022/06/04 10:12:07;;;;;;;17.10;16.00;;;26.60;94.20;;;;;;5042567;28;20601;-68
2022/06/04 10:14:35;;;;;;;17.07;16.00;;;27.20;93.50;;;;;;5042821;28;20467;-68
2022/06/04 10:17:04;;;;;;;18.37;17.17;;;27.30;92.50;;;;;;5042281;28;20596;-69
2022/06/04 10:19:33;;;;;;;17.57;16.20;;;27.60;91.20;;;;;;5040596;28;20985;-68
2022/06/04 10:22:11;;;;;;;17.47;15.97;;;26.90;91.30;;;;;;5042102;28;20472;-68
2022/06/04 10:24:49;;;;;;;17.00;15.80;;;26.10;92.70;;;;;;5042179;28;20462;-67
2022/06/04 10:27:33;;;;;;;18.27;17.17;;;27.00;91.80;;;;;;5036026;28;20470;-69
2022/06/04 10:30:19;;;;;;;18.10;17.00;;;27.70;90.80;;;;;;5036512;28;20470;-68
2022/06/04 10:32:56;;;;;;;18.57;17.47;;;28.00;89.90;;;;;;5040566;28;20474;-69
2022/06/04 10:35:35;;;;;;;18.77;17.47;;;27.90;89.80;;;;;;5040604;28;20604;-68
2022/06/04 10:38:29;;;;;;;19.20;17.90;;;28.20;89.10;;;;;;5040691;28;20966;-68
2022/06/04 10:41:07;;;;;;;18.60;17.50;;;28.10;89.70;;;;;;5039571;28;20614;-68
2022/06/04 10:44:01;;;;;;;19.60;18.33;;;28.10;86.80;;;;;;5051711;28;20462;-68
2022/06/04 10:46:38;;;;;;;18.50;17.37;;;28.80;86.70;;;;;;5057586;28;20977;-68
2022/06/04 10:49:24;;;;;;;18.50;17.10;;;28.50;85.30;;;;;;5056423;28;20469;-68
2022/06/04 10:51:59;;;;;;;18.10;17.10;;;28.40;85.50;;;;;;5040939;28;20465;-68
2022/06/04 10:54:37;;;;;;;18.60;17.30;;;28.10;85.90;;;;;;5040807;28;20512;-68
2022/06/04 10:57:18;;;;;;;18.73;17.37;;;28.30;86.30;;;;;;5041598;28;21121;-68
2022/06/04 10:59:52;;;;;;;18.77;17.67;;;28.60;83.10;;;;;;5041325;28;20459;-69
2022/06/04 11:02:26;;;;;;;19.47;17.93;;;28.40;83.20;;;;;;5040212;28;20463;-69
2022/06/04 11:04:56;;;;;;;19.73;18.53;;;28.90;83.30;;;;;;5041117;28;20489;-68
2022/06/04 11:07:38;;;;;;;21.07;19.37;;;29.40;81.80;;;;;;5041109;28;20970;-69
2022/06/04 11:10:12;;;;;;;19.33;18.03;;;29.70;80.30;;;;;;5040360;28;20478;-68
2022/06/04 11:12:46;;;;;;;20.60;19.17;;;29.90;77.90;;;;;;5041595;28;21113;-69
2022/06/04 11:15:18;;;;;;;19.50;18.30;;;29.30;78.80;;;;;;5039729;28;20463;-69
2022/06/04 11:17:53;;;;;;;18.60;17.20;;;30.00;78.20;;;;;;5051872;28;20459;-69
2022/06/04 11:20:23;;;;;;;18.73;17.63;;;30.60;76.30;;;;;;5060852;28;20839;-68
2022/06/04 11:22:59;;;;;;;17.83;16.90;;;31.10;74.60;;;;;;5065244;28;20493;-69
2022/06/04 11:25:30;;;;;;;19.27;17.90;;;30.60;73.40;;;;;;5039008;28;20462;-69
2022/06/04 11:27:59;;;;;;;20.37;18.67;;;30.70;74.10;;;;;;5042122;28;20948;-69
2022/06/04 11:30:34;;;;;;;19.90;18.40;;;31.50;69.90;;;;;;5038927;28;20482;-69
2022/06/04 11:33:13;;;;;;;20.00;18.90;;;31.50;69.00;;;;;;5045802;28;20567;-69
2022/06/04 11:35:45;;;;;;;21.17;19.53;;;32.40;66.80;;;;;;5070981;28;20898;-68
2022/06/04 11:38:27;;;;;;;17.90;16.90;;;32.30;65.40;;;;;;5070630;28;20462;-68
2022/06/04 11:41:03;;;;;;;18.87;17.77;;;32.40;67.00;;;;;;5036644;28;20471;-69
2022/06/04 11:43:46;;;;;;;18.53;17.20;;;33.10;64.50;;;;;;5022955;28;20455;-69
2022/06/04 11:46:27;;;;;;;18.47;17.33;;;33.40;64.70;;;;;;5023235;28;20846;-68
2022/06/04 11:49:04;;;;;;;18.07;16.97;;;33.60;61.50;;;;;;5024907;28;20451;-68
2022/06/04 11:51:53;;;;;;;19.30;18.10;;;33.50;61.20;;;;;;5023842;28;20470;-70
2022/06/04 11:54:34;;;;;;;18.50;17.20;;;32.60;60.30;;;;;;5016320;28;20564;-69
2022/06/04 11:57:10;;;;;;;19.50;18.50;;;32.60;62.50;;;;;;5035211;28;20849;-69
2022/06/04 11:59:52;;;;;;;19.03;17.70;;;33.20;60.40;;;;;;5035704;28;20458;-69
2022/06/04 12:02:24;;;;;;;18.40;17.10;;;33.00;60.80;;;;;;5050670;28;20471;-69
2022/06/04 12:05:03;;;;;;;18.37;17.17;;;32.50;61.90;;;;;;5050997;28;20494;-69
2022/06/04 12:07:37;;;;;;;19.30;18.10;;;32.90;62.10;;;;;;5014280;28;21215;-69
2022/06/04 12:10:15;;;;;;;19.43;17.97;;;33.00;60.90;;;;;;5032274;28;20905;-69
2022/06/04 12:12:55;;;;;;;19.07;17.93;;;33.30;59.90;;;;;;5034792;28;20529;-69
2022/06/04 12:15:31;;;;;;;19.83;18.63;;;32.00;60.30;;;;;;5036265;28;20465;-69
2022/06/04 12:18:04;;;;;;;19.10;17.90;;;32.50;60.60;;;;;;5035395;28;20558;-69
2022/06/04 12:26:24;;;;;;;19.10;17.40;;;32.50;60.10;;;;;;5034117;28;20473;-69
2022/06/04 12:28:53;;;;;;;21.23;19.93;;;32.80;60.20;;;;;;5037764;28;21154;-69
2022/06/04 12:31:30;;;;;;;20.30;18.70;;;31.30;62.30;;;;;;5035730;28;20466;-69
2022/06/04 12:33:58;;;;;;;18.83;17.07;;;31.50;62.20;;;;;;5033232;28;20469;-69
2022/06/04 12:36:27;;;;;;;18.90;17.80;;;31.80;64.70;;;;;;5035458;28;20467;-69
2022/06/04 12:39:03;;;;;;;20.27;18.57;;;32.30;62.90;;;;;;5034507;28;20459;-69
2022/06/04 12:41:44;;;;;;;19.60;18.40;;;32.70;61.00;;;;;;5033468;28;20467;-69
2022/06/04 12:44:25;;;;;;;18.60;17.57;;;33.30;60.70;;;;;;5033473;28;20497;-69
2022/06/04 12:46:54;;;;;;;19.70;18.30;;;33.70;60.10;;;;;;5034554;28;20741;-69
2022/06/04 12:49:33;;;;;;;20.57;19.03;;;32.40;59.50;;;;;;5035485;28;20834;-69
2022/06/04 12:52:07;;;;;;;18.67;17.57;;;32.40;60.60;;;;;;5034630;28;20592;-69
2022/06/04 12:54:56;;;;;;;20.57;19.07;;;32.80;61.30;;;;;;5036123;28;20504;-69
2022/06/04 12:57:44;;;;;;;20.27;19.10;;;33.10;59.50;;;;;;5033237;28;21076;-70
2022/06/04 13:00:26;;;;;;;20.57;19.30;;;33.70;58.90;;;;;;5031376;28;20458;-69
2022/06/04 13:03:00;;;;;;;19.60;18.37;;;32.30;59.20;;;;;;5052086;28;20466;-68
2022/06/04 13:05:29;;;;;;;19.73;18.43;;;32.40;62.50;;;;;;5050066;28;20777;-69
2022/06/04 13:08:02;;;;;;;20.43;19.23;;;32.10;61.00;;;;;;5065812;28;20528;-68
2022/06/04 13:10:38;;;;;;;18.60;17.50;;;33.00;60.90;;;;;;5039224;28;20471;-69